Time;durP1;ratioP1;P1;durP2;ratioP2;P2;SDS_P1;SDS_P2;PMS_P1;PMS_P2;Temp;Humidity;BMP_temperature;BMP_pressure;BME280_temperature;BME280_humidity;BME280_pressure;Samples;Min_cycle;Max_cycle;Signal;HPM_P1;HPM_P2
2023/03/04 00:04:45;;;;;;;22.50;18.50;;;6.10;32.40;;;;;;10315741;28;20656;-73
2023/03/04 00:09:50;;;;;;;24.67;21.60;;;6.00;32.30;;;;;;10317941;28;20699;-76
2023/03/04 00:14:54;;;;;;;24.53;19.57;;;6.00;32.40;;;;;;10316388;28;20226;-76
2023/03/04 00:19:57;;;;;;;21.33;17.60;;;6.00;32.50;;;;;;10311055;28;20226;-76
2023/03/04 00:25:01;;;;;;;21.83;18.73;;;5.90;32.40;;;;;;10317778;28;20242;-72
2023/03/04 00:30:07;;;;;;;20.87;18.17;;;5.90;32.40;;;;;;10317853;28;20227;-72
2023/03/04 00:35:10;;;;;;;22.70;20.30;;;5.90;32.60;;;;;;10317788;28;20593;-76
2023/03/04 00:40:14;;;;;;;19.70;16.63;;;5.80;32.40;;;;;;10317787;28;20231;-73
2023/03/04 00:45:18;;;;;;;25.17;20.80;;;5.80;32.40;;;;;;10321280;28;20593;-73
2023/03/04 00:50:21;;;;;;;21.63;18.70;;;5.80;32.60;;;;;;10324770;28;21344;-73
2023/03/04 00:55:24;;;;;;;19.03;16.87;;;5.80;32.40;;;;;;10323465;28;20725;-73
2023/03/04 01:00:29;;;;;;;25.70;21.93;;;5.70;32.30;;;;;;10325914;28;20593;-76
2023/03/04 01:05:34;;;;;;;22.70;19.77;;;5.70;32.40;;;;;;10323717;28;20226;-77
2023/03/04 01:10:37;;;;;;;22.63;20.23;;;5.60;32.40;;;;;;10325516;28;20237;-77
2023/03/04 01:15:43;;;;;;;23.00;19.97;;;5.60;32.40;;;;;;10324128;28;20227;-77
2023/03/04 01:20:46;;;;;;;23.07;18.70;;;5.50;32.50;;;;;;10324337;28;20261;-77
2023/03/04 01:25:49;;;;;;;19.97;16.83;;;5.50;32.50;;;;;;10323676;28;20285;-77
2023/03/04 01:30:53;;;;;;;21.43;17.47;;;5.40;32.40;;;;;;10324696;28;20577;-76
2023/03/04 01:35:57;;;;;;;17.73;15.77;;;5.40;32.70;;;;;;10321606;28;20234;-76
2023/03/04 01:41:00;;;;;;;24.70;20.23;;;5.30;32.50;;;;;;10323119;28;20226;-73
2023/03/04 01:46:05;;;;;;;23.63;20.07;;;5.30;32.60;;;;;;10322520;28;20227;-77
2023/03/04 01:51:13;;;;;;;22.67;19.30;;;5.20;32.90;;;;;;10324363;28;20330;-76
2023/03/04 01:56:20;;;;;;;23.53;19.33;;;5.20;33.00;;;;;;10314319;28;20751;-76
2023/03/04 02:01:24;;;;;;;22.33;19.07;;;5.10;33.00;;;;;;10322018;28;20349;-76
2023/03/04 02:06:28;;;;;;;23.27;20.73;;;5.10;33.10;;;;;;10321290;28;20235;-72
2023/03/04 02:11:31;;;;;;;21.97;18.60;;;5.00;32.90;;;;;;10321398;28;20227;-76
2023/03/04 02:16:36;;;;;;;26.00;21.00;;;5.00;33.00;;;;;;10321006;28;20235;-77
2023/03/04 02:21:39;;;;;;;28.17;20.67;;;4.90;33.10;;;;;;10321640;28;20231;-77
2023/03/04 02:26:45;;;;;;;28.50;22.83;;;4.80;33.00;;;;;;10322386;28;20239;-72
2023/03/04 02:31:51;;;;;;;26.47;20.83;;;4.80;33.40;;;;;;10321644;28;20791;-72
2023/03/04 02:36:55;;;;;;;24.30;20.80;;;4.70;33.30;;;;;;10320197;28;20636;-72
2023/03/04 02:42:00;;;;;;;24.50;19.80;;;4.70;33.40;;;;;;10320390;28;20231;-72
2023/03/04 02:47:07;;;;;;;20.00;16.30;;;4.70;33.60;;;;;;10320280;28;20278;-76
2023/03/04 02:52:14;;;;;;;21.47;18.30;;;4.70;33.30;;;;;;10321465;28;20626;-76
2023/03/04 02:57:19;;;;;;;23.20;18.97;;;4.80;33.70;;;;;;10318281;28;20230;-76
2023/03/04 03:02:22;;;;;;;22.03;18.33;;;4.70;33.50;;;;;;10320168;28;20239;-76
2023/03/04 03:07:25;;;;;;;20.63;18.47;;;4.70;33.30;;;;;;10318741;28;20327;-76
2023/03/04 03:12:30;;;;;;;21.33;18.57;;;4.60;33.30;;;;;;10321213;28;20572;-72
2023/03/04 03:17:33;;;;;;;20.40;18.23;;;4.60;33.40;;;;;;10319259;28;20230;-71
2023/03/04 03:22:36;;;;;;;21.63;17.47;;;4.60;33.30;;;;;;10319070;28;20546;-72
2023/03/04 03:27:41;;;;;;;23.37;20.23;;;4.60;33.30;;;;;;10318684;28;20235;-72
2023/03/04 03:32:44;;;;;;;24.27;19.83;;;4.60;33.50;;;;;;10316643;28;20227;-76
2023/03/04 03:37:48;;;;;;;24.10;20.10;;;4.60;33.30;;;;;;10318990;28;20230;-76
2023/03/04 03:42:53;;;;;;;18.97;16.27;;;4.60;33.30;;;;;;10319777;28;20231;-76
2023/03/04 03:47:56;;;;;;;22.33;18.73;;;4.60;33.30;;;;;;10318670;28;20719;-76
2023/03/04 03:52:59;;;;;;;22.33;18.53;;;4.50;33.30;;;;;;10317503;28;20223;-75
2023/03/04 03:58:04;;;;;;;22.20;19.10;;;4.50;33.30;;;;;;10318380;28;20702;-75
2023/03/04 04:03:07;;;;;;;22.27;19.10;;;4.40;33.30;;;;;;10323556;28;20310;-75
2023/03/04 04:08:13;;;;;;;25.17;19.17;;;4.60;33.40;;;;;;10317903;28;20261;-72
2023/03/04 04:13:17;;;;;;;22.43;18.43;;;4.40;33.40;;;;;;10317114;28;20285;-76
2023/03/04 04:18:21;;;;;;;23.20;18.43;;;4.40;33.30;;;;;;10318395;28;20246;-76
2023/03/04 04:23:24;;;;;;;22.77;17.67;;;4.40;33.30;;;;;;10326673;28;20696;-76
2023/03/04 04:28:28;;;;;;;20.97;17.47;;;4.30;33.20;;;;;;10326424;28;20239;-71
2023/03/04 04:33:32;;;;;;;22.20;18.50;;;4.20;33.30;;;;;;10325857;28;20219;-71
2023/03/04 04:38:35;;;;;;;21.10;16.93;;;4.30;33.30;;;;;;10325505;28;20323;-76
2023/03/04 04:43:39;;;;;;;21.33;17.27;;;4.10;33.10;;;;;;10326031;28;20944;-76
2023/03/04 04:48:42;;;;;;;22.97;17.93;;;4.10;33.40;;;;;;10327686;28;20242;-76
2023/03/04 04:53:46;;;;;;;22.53;16.23;;;4.00;33.30;;;;;;10323901;28;20219;-75
2023/03/04 04:58:50;;;;;;;23.00;18.90;;;4.00;33.30;;;;;;10326118;28;20285;-76
2023/03/04 05:03:56;;;;;;;18.67;16.60;;;3.90;33.50;;;;;;10325973;28;20227;-76
2023/03/04 05:09:03;;;;;;;20.80;17.03;;;3.90;33.50;;;;;;10324161;28;20261;-76
2023/03/04 05:14:07;;;;;;;22.83;17.40;;;3.90;33.30;;;;;;10319423;28;20590;-75
2023/03/04 05:19:11;;;;;;;21.90;17.30;;;3.90;33.40;;;;;;10323118;28;20245;-75
2023/03/04 05:24:14;;;;;;;21.43;17.67;;;3.80;33.30;;;;;;10321080;28;20231;-75
2023/03/04 05:29:19;;;;;;;20.60;17.27;;;3.80;33.30;;;;;;10320334;28;20231;-75
2023/03/04 05:34:22;;;;;;;23.57;18.23;;;3.80;33.60;;;;;;10321341;28;20238;-75
2023/03/04 05:39:25;;;;;;;23.50;18.20;;;3.70;33.40;;;;;;10319799;28;20227;-76
2023/03/04 05:44:30;;;;;;;21.20;17.43;;;3.60;33.30;;;;;;10320111;28;20235;-76
2023/03/04 05:49:33;;;;;;;24.10;17.83;;;3.50;33.50;;;;;;10321832;28;20315;-76
2023/03/04 05:54:36;;;;;;;21.07;17.03;;;3.40;33.40;;;;;;10321268;28;20798;-75
2023/03/04 05:59:41;;;;;;;24.33;19.63;;;3.50;33.60;;;;;;10322278;28;20239;-76
2023/03/04 06:04:44;;;;;;;22.00;17.43;;;3.30;33.80;;;;;;10322339;28;20238;-76
2023/03/04 06:09:47;;;;;;;23.57;17.67;;;3.40;33.80;;;;;;10321470;28;20781;-76
2023/03/04 06:14:52;;;;;;;23.53;17.37;;;3.30;34.00;;;;;;10281424;28;1169855;-76
2023/03/04 06:19:55;;;;;;;22.53;18.33;;;3.30;34.00;;;;;;10321931;28;20239;-76
2023/03/04 06:24:59;;;;;;;22.57;18.30;;;3.30;33.90;;;;;;10323325;28;20258;-76
2023/03/04 06:30:04;;;;;;;21.07;17.67;;;3.30;34.00;;;;;;10320883;28;20231;-75
2023/03/04 06:35:08;;;;;;;23.37;18.37;;;3.30;34.20;;;;;;10323128;28;20219;-75
2023/03/04 06:40:12;;;;;;;22.67;17.50;;;3.30;34.10;;;;;;10320586;28;20235;-76
2023/03/04 06:45:17;;;;;;;21.87;18.20;;;3.30;34.20;;;;;;10321160;28;20239;-76
2023/03/04 06:50:21;;;;;;;21.87;18.73;;;3.30;34.40;;;;;;10324158;28;20223;-76
2023/03/04 06:55:24;;;;;;;24.03;19.43;;;3.30;34.30;;;;;;10320627;28;20227;-76
2023/03/04 07:00:29;;;;;;;26.33;20.27;;;3.30;34.50;;;;;;10321832;28;20239;-76
2023/03/04 07:05:32;;;;;;;33.27;23.70;;;3.50;35.00;;;;;;10320702;28;20231;-75
2023/03/04 07:10:38;;;;;;;24.63;19.20;;;3.30;34.80;;;;;;10326459;28;20250;-76
2023/03/04 07:15:42;;;;;;;24.57;17.33;;;3.40;35.20;;;;;;10321357;28;20230;-76
2023/03/04 07:20:46;;;;;;;22.13;17.03;;;3.40;35.50;;;;;;10322750;28;20226;-76
2023/03/04 07:25:50;;;;;;;21.37;16.90;;;3.50;35.50;;;;;;10318199;28;20611;-76
2023/03/04 07:30:54;;;;;;;21.03;16.60;;;3.50;35.50;;;;;;10316340;28;20234;-75
2023/03/04 07:35:59;;;;;;;23.60;16.37;;;3.60;35.60;;;;;;10319054;28;20227;-75
2023/03/04 07:41:02;;;;;;;21.00;16.70;;;3.70;35.70;;;;;;10317253;28;20226;-73
2023/03/04 07:46:07;;;;;;;19.10;15.03;;;3.80;35.80;;;;;;10319401;28;20227;-75
2023/03/04 07:51:12;;;;;;;19.30;15.17;;;3.90;35.90;;;;;;10317735;28;20280;-72
2023/03/04 07:56:17;;;;;;;19.47;16.00;;;4.00;36.00;;;;;;10315665;28;20215;-74
2023/03/04 08:01:24;;;;;;;20.43;15.43;;;4.10;36.20;;;;;;10319201;28;20229;-72
2023/03/04 08:06:28;;;;;;;17.30;13.87;;;4.20;36.90;;;;;;10321614;28;20246;-72
2023/03/04 08:11:32;;;;;;;16.73;12.87;;;4.20;36.40;;;;;;10315435;28;20242;-72
2023/03/04 08:16:36;;;;;;;14.90;12.23;;;4.30;36.30;;;;;;10315696;28;20860;-72
2023/03/04 08:21:40;;;;;;;15.00;12.53;;;4.40;36.70;;;;;;10315018;28;20699;-72
2023/03/04 08:26:45;;;;;;;14.50;12.07;;;4.50;36.40;;;;;;10313296;28;20249;-72
2023/03/04 08:31:51;;;;;;;19.27;14.90;;;4.60;36.70;;;;;;10315823;28;20233;-72
2023/03/04 08:36:55;;;;;;;18.90;14.00;;;4.80;37.10;;;;;;10314354;28;20795;-72
2023/03/04 08:41:58;;;;;;;16.30;13.73;;;4.90;36.70;;;;;;10314856;28;20231;-74
2023/03/04 08:47:02;;;;;;;12.80;10.70;;;5.00;36.80;;;;;;10315365;28;20261;-74
2023/03/04 08:52:06;;;;;;;13.80;9.97;;;5.00;36.80;;;;;;10306052;28;20761;-72
2023/03/04 08:57:09;;;;;;;11.13;9.20;;;5.00;36.80;;;;;;10311514;28;20730;-72
2023/03/04 09:02:13;;;;;;;11.17;9.90;;;5.00;36.80;;;;;;10314805;28;20231;-71
2023/03/04 09:07:16;;;;;;;10.10;8.53;;;5.10;36.90;;;;;;10316731;28;20235;-71
2023/03/04 09:12:20;;;;;;;11.07;8.60;;;5.10;36.80;;;;;;10322814;28;20741;-71
2023/03/04 09:17:24;;;;;;;11.13;9.30;;;5.10;36.90;;;;;;10320387;28;20235;-74
2023/03/04 09:22:27;;;;;;;12.77;9.57;;;5.00;36.90;;;;;;10322704;28;20734;-74
2023/03/04 09:27:30;;;;;;;11.13;8.60;;;5.00;36.80;;;;;;10321118;28;20249;-74
2023/03/04 09:32:35;;;;;;;9.13;7.80;;;5.00;36.80;;;;;;10323138;28;20226;-74
2023/03/04 09:37:38;;;;;;;12.83;9.10;;;5.10;36.90;;;;;;10318006;28;20227;-74
2023/03/04 09:42:48;;;;;;;11.90;8.63;;;5.10;36.80;;;;;;10321682;28;20226;-74
2023/03/04 09:47:55;;;;;;;10.33;8.77;;;5.20;37.00;;;;;;10324274;28;20230;-74
2023/03/04 09:53:11;;;;;;;10.73;9.00;;;5.20;37.00;;;;;;10324460;28;20219;-74
2023/03/04 09:58:28;;;;;;;10.37;8.80;;;5.20;37.00;;;;;;10323747;28;20273;-74
2023/03/04 10:03:43;;;;;;;11.67;8.80;;;5.10;36.90;;;;;;10323412;28;20234;-74
2023/03/04 10:08:53;;;;;;;11.37;8.80;;;5.10;36.90;;;;;;10320679;28;20261;-75
2023/03/04 10:14:04;;;;;;;10.33;8.93;;;5.00;36.80;;;;;;10323267;28;20234;-74
2023/03/04 10:19:25;;;;;;;11.60;9.47;;;4.90;36.70;;;;;;10316245;28;20318;-75
2023/03/04 10:24:30;;;;;;;13.27;10.40;;;4.90;37.20;;;;;;10317749;28;20238;-69
2023/03/04 10:29:34;;;;;;;12.33;9.63;;;5.00;36.80;;;;;;10313664;28;20837;-74
2023/03/04 10:34:38;;;;;;;10.00;8.70;;;5.00;36.90;;;;;;10315406;28;20227;-74
2023/03/04 10:39:43;;;;;;;12.30;9.80;;;5.00;36.80;;;;;;10315127;28;20219;-74
2023/03/04 10:44:53;;;;;;;16.60;11.40;;;5.10;36.80;;;;;;10313522;28;20226;-70
2023/03/04 10:49:59;;;;;;;16.60;10.70;;;5.20;37.00;;;;;;10314639;28;20712;-71
2023/03/04 10:55:06;;;;;;;13.07;10.00;;;5.20;36.70;;;;;;10313497;28;20231;-71
2023/03/04 11:00:28;;;;;;;12.60;10.17;;;5.10;36.50;;;;;;10315624;28;20231;-74
2023/03/04 11:05:34;;;;;;;14.33;12.70;;;5.00;36.80;;;;;;10316573;28;20857;-71
2023/03/04 11:10:40;;;;;;;13.60;11.00;;;5.00;36.80;;;;;;10312309;28;20246;-70
2023/03/04 11:15:52;;;;;;;11.80;10.13;;;4.90;36.70;;;;;;10314575;28;20235;-70
2023/03/04 11:21:01;;;;;;;11.50;10.03;;;5.00;36.80;;;;;;10313558;28;20278;-71
2023/03/04 11:26:10;;;;;;;11.97;9.70;;;5.00;36.80;;;;;;10310030;28;20226;-72
2023/03/04 11:31:16;;;;;;;13.23;10.47;;;5.00;36.80;;;;;;10308354;28;20227;-71
2023/03/04 11:36:32;;;;;;;11.90;10.63;;;5.10;36.80;;;;;;10314408;28;20230;-71
2023/03/04 11:41:40;;;;;;;12.67;10.70;;;5.10;36.80;;;;;;10311922;28;20230;-71
2023/03/04 11:47:18;;;;;;;14.67;11.77;;;5.10;36.90;;;;;;10314583;28;20231;-71
2023/03/04 11:52:34;;;;;;;13.50;11.20;;;5.10;36.90;;;;;;10309858;28;20695;-70
2023/03/04 11:57:47;;;;;;;15.43;11.33;;;5.10;36.90;;;;;;10315248;28;20672;-70
2023/03/04 12:03:12;;;;;;;13.60;11.13;;;5.10;36.80;;;;;;10315214;28;20329;-70
2023/03/04 12:08:42;;;;;;;15.37;11.70;;;5.10;36.90;;;;;;10313632;28;20252;-70
2023/03/04 12:14:15;;;;;;;13.47;11.33;;;5.20;36.90;;;;;;10315504;28;20605;-70
2023/03/04 12:19:30;;;;;;;15.80;12.63;;;5.20;36.60;;;;;;10315675;28;20237;-70
2023/03/04 12:25:24;;;;;;;14.27;12.13;;;5.30;36.60;;;;;;10310592;28;20234;-75
2023/03/04 12:30:40;;;;;;;14.40;12.10;;;5.30;37.00;;;;;;10228728;28;20234;-74
2023/03/04 12:35:52;;;;;;;14.83;11.80;;;5.40;36.30;;;;;;10315801;28;20309;-75
2023/03/04 12:41:03;;;;;;;15.63;12.30;;;5.30;36.10;;;;;;10316423;28;20239;-74
2023/03/04 12:46:17;;;;;;;14.10;12.03;;;5.40;36.20;;;;;;10322319;28;20231;-71
2023/03/04 12:51:32;;;;;;;16.50;13.20;;;5.30;36.50;;;;;;10323094;28;20238;-70
2023/03/04 12:56:42;;;;;;;14.20;12.17;;;5.30;36.70;;;;;;10323588;28;20230;-70
2023/03/04 13:01:56;;;;;;;15.33;12.60;;;5.30;36.60;;;;;;10323495;28;20273;-74
2023/03/04 13:07:11;;;;;;;15.23;11.67;;;5.40;37.10;;;;;;10320496;28;20735;-74
2023/03/04 13:12:17;;;;;;;13.57;11.90;;;5.40;37.10;;;;;;10321424;28;20218;-74
2023/03/04 13:17:43;;;;;;;14.10;12.40;;;5.50;36.40;;;;;;10320640;28;20266;-71
2023/03/04 13:22:51;;;;;;;12.90;11.43;;;5.60;36.70;;;;;;10321229;28;20261;-71
2023/03/04 13:28:17;;;;;;;14.57;11.63;;;5.70;36.10;;;;;;10317526;28;20227;-71
2023/03/04 13:33:59;;;;;;;14.57;12.23;;;5.70;36.30;;;;;;10323311;28;20470;-71
2023/03/04 13:39:22;;;;;;;14.00;11.93;;;5.80;36.30;;;;;;10323264;28;20226;-71
2023/03/04 13:44:47;;;;;;;14.17;12.43;;;5.90;35.90;;;;;;10319072;28;20227;-71
2023/03/04 13:50:11;;;;;;;17.40;13.77;;;5.90;35.60;;;;;;10321252;28;20245;-71
2023/03/04 13:55:38;;;;;;;16.03;12.93;;;5.90;35.40;;;;;;10321131;28;20258;-71
2023/03/04 14:00:48;;;;;;;14.03;11.93;;;5.90;35.20;;;;;;10320151;28;20532;-71
2023/03/04 14:06:15;;;;;;;14.83;12.90;;;5.90;35.70;;;;;;10322361;28;20677;-71
2023/03/04 14:11:27;;;;;;;15.33;12.40;;;5.90;35.70;;;;;;10320680;28;20218;-74
2023/03/04 14:16:36;;;;;;;13.93;12.37;;;5.80;35.60;;;;;;10320842;28;20576;-73
2023/03/04 14:21:45;;;;;;;16.33;14.10;;;6.00;35.30;;;;;;10321053;28;20593;-73
2023/03/04 14:27:03;;;;;;;16.23;13.57;;;6.00;35.10;;;;;;10320229;28;20754;-73
2023/03/04 14:32:07;;;;;;;15.53;13.63;;;6.00;35.20;;;;;;10321171;28;20679;-74
2023/03/04 14:37:22;;;;;;;14.43;12.27;;;6.00;35.20;;;;;;10319266;28;20603;-75
2023/03/04 14:42:33;;;;;;;12.83;11.47;;;6.00;34.80;;;;;;10321135;28;20225;-74
2023/03/04 14:47:40;;;;;;;13.67;12.23;;;6.00;34.80;;;;;;10320296;28;20300;-73
2023/03/04 14:52:45;;;;;;;13.33;11.90;;;6.00;34.90;;;;;;10319080;28;20230;-73
2023/03/04 14:57:57;;;;;;;13.20;11.13;;;6.10;34.90;;;;;;10314759;28;20704;-73
2023/03/04 15:03:01;;;;;;;13.47;10.77;;;6.10;34.60;;;;;;10316887;28;20704;-73
2023/03/04 15:08:06;;;;;;;12.13;10.77;;;6.10;34.60;;;;;;10314409;28;20223;-77
2023/03/04 15:13:10;;;;;;;14.97;12.90;;;6.00;34.30;;;;;;10316945;28;20226;-73
2023/03/04 15:18:18;;;;;;;13.70;11.47;;;6.00;34.30;;;;;;10317218;28;20638;-74
2023/03/04 15:23:21;;;;;;;12.33;10.57;;;5.90;34.50;;;;;;10319186;28;20238;-75
2023/03/04 15:28:27;;;;;;;12.10;10.60;;;5.90;34.70;;;;;;10316551;28;20610;-74
2023/03/04 15:33:30;;;;;;;12.77;11.20;;;5.90;34.50;;;;;;10318374;28;20223;-74
2023/03/04 15:38:33;;;;;;;12.13;10.23;;;5.90;34.50;;;;;;10316013;28;20234;-74
2023/03/04 15:43:38;;;;;;;13.37;10.80;;;5.90;34.30;;;;;;10315345;28;20241;-74
2023/03/04 15:48:41;;;;;;;12.73;11.27;;;5.90;34.50;;;;;;10315237;28;20231;-74
2023/03/04 15:53:47;;;;;;;13.10;11.13;;;5.90;34.40;;;;;;10315176;28;20237;-74
2023/03/04 15:58:55;;;;;;;12.87;10.97;;;5.80;34.30;;;;;;10317413;28;20235;-74
2023/03/04 16:03:58;;;;;;;12.53;11.23;;;5.80;34.20;;;;;;10315565;28;20231;-74
2023/03/04 16:09:02;;;;;;;11.63;10.43;;;5.80;34.10;;;;;;10313689;28;20230;-74
2023/03/04 16:14:11;;;;;;;12.87;11.30;;;5.80;34.20;;;;;;10318245;28;20616;-74
2023/03/04 16:19:14;;;;;;;13.27;10.77;;;5.70;34.10;;;;;;10323999;28;20230;-74
2023/03/04 16:24:20;;;;;;;11.73;10.53;;;5.70;34.10;;;;;;10322002;28;20490;-74
2023/03/04 16:29:25;;;;;;;13.97;11.27;;;5.70;34.00;;;;;;10323535;28;20250;-74
2023/03/04 16:34:28;;;;;;;14.30;10.80;;;5.60;34.00;;;;;;10326269;28;20633;-74
2023/03/04 16:39:31;;;;;;;13.40;10.83;;;5.50;34.00;;;;;;10324832;28;20265;-74
2023/03/04 16:44:35;;;;;;;13.57;11.50;;;5.50;34.30;;;;;;10323795;28;20759;-74
2023/03/04 16:49:39;;;;;;;11.93;10.63;;;5.40;34.50;;;;;;10325380;28;20227;-74
2023/03/04 16:54:42;;;;;;;12.93;11.57;;;5.40;34.40;;;;;;10322107;28;20238;-74
2023/03/04 16:59:47;;;;;;;12.10;10.30;;;5.40;34.40;;;;;;10321180;28;20223;-74
2023/03/04 17:04:51;;;;;;;13.43;10.90;;;5.40;34.40;;;;;;10323398;28;20230;-73
2023/03/04 17:09:54;;;;;;;12.83;10.57;;;5.40;34.50;;;;;;10320607;28;20684;-74
2023/03/04 17:14:58;;;;;;;14.63;11.10;;;5.40;34.50;;;;;;10321448;28;20235;-71
2023/03/04 17:20:04;;;;;;;13.87;11.80;;;5.40;34.50;;;;;;10319143;28;20242;-72
2023/03/04 17:25:08;;;;;;;13.63;10.63;;;5.40;34.60;;;;;;10311520;28;20892;-71
2023/03/04 17:30:14;;;;;;;13.73;10.30;;;5.40;34.50;;;;;;10310790;28;20235;-72
2023/03/04 17:35:17;;;;;;;11.27;10.13;;;5.40;34.50;;;;;;10312247;28;20230;-72
2023/03/04 17:40:20;;;;;;;13.73;11.03;;;5.40;34.50;;;;;;10309310;28;20238;-71
2023/03/04 17:45:25;;;;;;;12.17;10.83;;;5.30;34.50;;;;;;10313747;28;20234;-71
2023/03/04 17:50:28;;;;;;;12.57;9.90;;;5.30;34.60;;;;;;10315272;28;20239;-70
2023/03/04 17:55:31;;;;;;;11.97;9.97;;;5.40;34.70;;;;;;10318556;28;20266;-70
2023/03/04 18:00:36;;;;;;;15.23;13.63;;;5.40;34.70;;;;;;10320620;28;20250;-70
2023/03/04 18:05:39;;;;;;;12.07;10.37;;;5.40;34.70;;;;;;10313798;28;20750;-70
2023/03/04 18:10:42;;;;;;;11.80;9.37;;;5.50;34.60;;;;;;10322741;28;20980;-70
2023/03/04 18:15:49;;;;;;;9.90;8.67;;;5.50;34.60;;;;;;10319269;28;20231;-70
2023/03/04 18:20:58;;;;;;;11.03;9.93;;;5.50;34.60;;;;;;10319124;28;20238;-69
2023/03/04 18:26:03;;;;;;;11.17;9.93;;;5.60;34.70;;;;;;10315636;28;20590;-70
2023/03/04 18:31:09;;;;;;;12.13;9.57;;;5.50;34.50;;;;;;10317107;28;20241;-69
2023/03/04 18:36:12;;;;;;;14.97;12.13;;;5.70;34.60;;;;;;10317501;28;20585;-70
2023/03/04 18:41:16;;;;;;;11.33;10.23;;;5.70;34.60;;;;;;10320170;28;20231;-70
2023/03/04 18:46:33;;;;;;;12.90;10.93;;;5.70;34.60;;;;;;10294300;28;20250;-69
2023/03/04 18:51:36;;;;;;;11.70;10.27;;;5.70;34.60;;;;;;10301149;28;20254;-69
2023/03/04 18:56:43;;;;;;;13.20;11.13;;;5.70;34.50;;;;;;10308584;28;20720;-69
2023/03/04 19:01:50;;;;;;;12.07;10.03;;;5.70;34.60;;;;;;10310298;28;20227;-70
2023/03/04 19:06:53;;;;;;;11.43;10.07;;;5.70;34.50;;;;;;10301241;28;20242;-69
2023/03/04 19:11:56;;;;;;;12.13;10.30;;;5.70;34.50;;;;;;10314225;28;20227;-70
2023/03/04 19:17:00;;;;;;;11.93;10.30;;;5.60;34.50;;;;;;10320846;28;20227;-70
2023/03/04 19:22:05;;;;;;;12.23;10.90;;;5.60;34.60;;;;;;10313191;28;20681;-71
2023/03/04 19:27:08;;;;;;;15.10;11.53;;;5.70;34.60;;;;;;10307263;28;20223;-73
2023/03/04 19:32:13;;;;;;;11.30;10.10;;;5.60;34.50;;;;;;10332502;28;20231;-73
2023/03/04 19:37:16;;;;;;;12.80;10.87;;;5.60;34.50;;;;;;10317087;28;20251;-73
2023/03/04 19:42:20;;;;;;;12.30;11.00;;;5.50;34.50;;;;;;10320192;28;20223;-70
2023/03/04 19:47:24;;;;;;;13.73;11.67;;;5.50;34.60;;;;;;10309265;28;20605;-73
2023/03/04 19:52:27;;;;;;;14.87;12.13;;;5.50;34.70;;;;;;10305914;28;20599;-70
2023/03/04 19:57:31;;;;;;;14.40;11.70;;;5.50;34.70;;;;;;10311678;28;20238;-69
2023/03/04 20:02:35;;;;;;;13.73;12.17;;;5.50;34.70;;;;;;10290433;28;20227;-70
2023/03/04 20:07:39;;;;;;;13.90;12.50;;;5.40;34.80;;;;;;10299566;28;20231;-69
2023/03/04 20:12:42;;;;;;;14.13;12.17;;;5.40;34.90;;;;;;10310518;28;20230;-70
2023/03/04 20:17:46;;;;;;;13.03;11.47;;;5.40;35.00;;;;;;10306428;28;20222;-69
2023/03/04 20:22:49;;;;;;;13.17;11.87;;;5.30;35.20;;;;;;10308022;28;20253;-69
2023/03/04 20:27:53;;;;;;;13.40;12.10;;;5.40;35.20;;;;;;10308991;28;20227;-70
2023/03/04 20:32:57;;;;;;;14.00;11.93;;;5.40;35.20;;;;;;10308338;28;20294;-70
2023/03/04 20:38:01;;;;;;;13.23;11.83;;;5.50;35.20;;;;;;10308280;28;20234;-70
2023/03/04 20:43:04;;;;;;;16.27;12.97;;;5.50;35.10;;;;;;10307788;28;20237;-70
2023/03/04 20:48:09;;;;;;;15.73;12.43;;;5.50;35.10;;;;;;10309283;28;20234;-70
2023/03/04 20:53:12;;;;;;;14.20;12.73;;;5.50;35.10;;;;;;10316910;28;20223;-70
2023/03/04 20:58:15;;;;;;;14.77;12.10;;;5.60;35.10;;;;;;10311557;28;20759;-70
2023/03/04 21:03:20;;;;;;;13.90;12.13;;;5.60;35.10;;;;;;10319609;28;20223;-74
2023/03/04 21:08:23;;;;;;;15.00;13.40;;;5.70;35.10;;;;;;10317339;28;20250;-75
2023/03/04 21:13:29;;;;;;;15.23;12.93;;;5.70;35.00;;;;;;10316223;28;20230;-74
2023/03/04 21:18:34;;;;;;;16.13;13.57;;;5.70;34.90;;;;;;10322129;28;20238;-70
2023/03/04 21:23:37;;;;;;;16.67;14.53;;;5.70;34.90;;;;;;10318130;28;20246;-70
2023/03/04 21:28:42;;;;;;;16.23;14.37;;;5.70;34.80;;;;;;10320562;28;20251;-73
2023/03/04 21:33:47;;;;;;;18.90;15.30;;;5.70;34.90;;;;;;10316196;28;20223;-72
2023/03/04 21:38:50;;;;;;;17.60;15.37;;;5.60;35.00;;;;;;10315624;28;20811;-71
2023/03/04 21:43:53;;;;;;;18.27;15.00;;;5.60;35.00;;;;;;10311397;28;20222;-70
2023/03/04 21:48:58;;;;;;;16.97;14.60;;;5.50;35.00;;;;;;10315723;28;20224;-74
2023/03/04 21:54:01;;;;;;;17.27;15.43;;;5.50;35.20;;;;;;10316483;28;20593;-74
2023/03/04 21:59:06;;;;;;;16.50;14.10;;;5.40;35.20;;;;;;10320143;28;20231;-70
2023/03/04 22:04:11;;;;;;;15.97;14.17;;;5.40;35.20;;;;;;10320733;28;20223;-70
2023/03/04 22:09:14;;;;;;;18.97;15.57;;;5.40;35.20;;;;;;10317083;28;20235;-70
2023/03/04 22:14:17;;;;;;;18.67;14.83;;;5.40;35.30;;;;;;10320793;28;20715;-73
2023/03/04 22:19:22;;;;;;;17.50;15.10;;;5.30;35.30;;;;;;10321855;28;20724;-70
2023/03/04 22:24:26;;;;;;;18.43;15.40;;;5.30;35.50;;;;;;10319206;28;20449;-70
2023/03/04 22:29:29;;;;;;;16.53;14.73;;;5.20;35.50;;;;;;10320471;28;20227;-70
2023/03/04 22:34:34;;;;;;;16.23;14.33;;;5.20;35.40;;;;;;10321922;28;20233;-70
2023/03/04 22:39:37;;;;;;;17.50;15.30;;;5.20;35.60;;;;;;10320304;28;20227;-70
2023/03/04 22:44:40;;;;;;;17.97;15.77;;;5.20;35.60;;;;;;10317874;28;20219;-74
2023/03/04 22:49:46;;;;;;;17.83;14.77;;;5.20;35.60;;;;;;10318140;28;20234;-74
2023/03/04 22:54:49;;;;;;;17.00;14.60;;;5.20;35.60;;;;;;10319520;28;20234;-74
2023/03/04 22:59:52;;;;;;;17.23;14.03;;;5.20;35.60;;;;;;10318582;28;20234;-74
2023/03/04 23:04:58;;;;;;;18.73;15.37;;;5.20;35.60;;;;;;10319121;28;20238;-71
2023/03/04 23:10:01;;;;;;;18.90;15.20;;;5.30;35.70;;;;;;10320263;28;20223;-71
2023/03/04 23:15:06;;;;;;;16.57;14.47;;;5.30;35.60;;;;;;10319919;28;20223;-72
2023/03/04 23:20:16;;;;;;;17.77;15.87;;;5.30;35.50;;;;;;10317714;28;20231;-73
2023/03/04 23:25:19;;;;;;;16.83;14.30;;;5.30;35.60;;;;;;10319375;28;20227;-70
2023/03/04 23:30:22;;;;;;;17.53;15.00;;;5.40;35.50;;;;;;10322110;28;20235;-70
2023/03/04 23:35:27;;;;;;;15.90;14.03;;;5.40;35.50;;;;;;10317693;28;20258;-70
2023/03/04 23:40:30;;;;;;;21.03;16.77;;;5.40;35.40;;;;;;10317942;28;20235;-71
2023/03/04 23:45:33;;;;;;;19.80;16.10;;;5.50;35.30;;;;;;10316193;28;20720;-72
2023/03/04 23:50:38;;;;;;;20.80;16.10;;;5.50;35.20;;;;;;10319577;28;20264;-71
2023/03/04 23:55:41;;;;;;;18.73;15.77;;;5.50;35.20;;;;;;10318419;28;20238;-70
